createdAt,value
2024-01-05T00:01:07.466Z,99.1
2024-01-05T00:02:21.759Z,99.1
2024-01-05T00:03:36.052Z,99.3
2024-01-05T00:04:50.345Z,99.1
2024-01-05T00:06:04.638Z,99.3
2024-01-05T00:07:18.931Z,99.2
2024-01-05T00:08:33.224Z,98.9
2024-01-05T00:09:47.517Z,99.2
2024-01-05T00:11:01.810Z,99.1
2024-01-05T00:12:15.119Z,99.4
2024-01-05T00:13:29.412Z,99
2024-01-05T00:14:43.705Z,98.7
2024-01-05T00:15:57.998Z,99
2024-01-05T00:17:12.291Z,99.3
2024-01-05T00:18:26.584Z,99.4
2024-01-05T00:19:40.876Z,99.8
2024-01-05T00:20:55.170Z,99.8
2024-01-05T00:22:09.463Z,99.8
2024-01-05T00:23:23.756Z,99.5
2024-01-05T00:24:38.049Z,99.6
2024-01-05T00:25:52.341Z,99.3
2024-01-05T00:27:06.634Z,99
2024-01-05T00:28:19.944Z,99.2
2024-01-05T00:29:34.236Z,99.1
2024-01-05T00:30:48.529Z,99.3
2024-01-05T00:32:02.823Z,99.3
2024-01-05T00:33:17.116Z,99.5
2024-01-05T00:34:31.408Z,99.3
2024-01-05T00:35:45.701Z,98.7
2024-01-05T00:36:59.994Z,98.8
2024-01-05T00:38:14.287Z,98.6
2024-01-05T00:39:28.581Z,98.9
2024-01-05T00:40:42.874Z,99
2024-01-05T00:41:57.167Z,99
2024-01-05T00:43:11.460Z,98.9
2024-01-05T00:44:24.769Z,99.3
2024-01-05T00:45:39.062Z,99
2024-01-05T00:46:53.355Z,99.2
2024-01-05T00:48:07.648Z,99.2
2024-01-05T00:50:36.234Z,99.5
2024-01-05T00:51:50.527Z,99.3
2024-01-05T00:53:04.820Z,99.3
2024-01-05T00:54:19.113Z,99
2024-01-05T00:55:33.406Z,98.9
2024-01-05T00:56:47.699Z,99
2024-01-05T00:58:01.992Z,99.2
2024-01-05T00:59:16.285Z,99.2
2024-01-05T01:00:29.594Z,98.8
2024-01-05T01:01:43.887Z,98.5
2024-01-05T01:02:58.180Z,98.7
2024-01-05T01:04:11.494Z,98.9
2024-01-05T01:05:24.803Z,98.9
2024-01-05T01:06:39.096Z,98.7
2024-01-05T01:07:53.389Z,99
2024-01-05T01:09:07.682Z,98.5
2024-01-05T01:10:21.975Z,98.5
2024-01-05T01:11:36.268Z,98.6
2024-01-05T01:12:50.561Z,98.6
2024-01-05T01:14:04.854Z,98.7
2024-01-05T01:15:19.146Z,98.6
2024-01-05T01:16:33.440Z,98.5
2024-01-05T01:17:47.733Z,98.5
2024-01-05T01:19:02.025Z,98.7
2024-01-05T01:20:16.318Z,98.7
2024-01-05T01:21:29.627Z,98.8
2024-01-05T01:22:43.920Z,99
2024-01-05T01:23:58.213Z,98.9
2024-01-05T01:25:12.506Z,99.1
2024-01-05T01:26:26.799Z,99.2
2024-01-05T01:27:41.092Z,99.2
2024-01-05T01:28:55.367Z,98.9
2024-01-05T01:30:09.678Z,99
2024-01-05T01:31:23.971Z,98.8
2024-01-05T01:32:38.264Z,98.8
2024-01-05T01:33:52.557Z,99
2024-01-05T01:35:06.838Z,99.4
2024-01-05T01:36:21.142Z,99.2
2024-01-05T01:37:34.451Z,99.1
2024-01-05T01:38:48.745Z,99
2024-01-05T01:40:03.038Z,99
2024-01-05T01:41:17.330Z,99.1
2024-01-05T01:42:31.623Z,99.3
2024-01-05T01:43:45.916Z,99.4
2024-01-05T01:45:00.209Z,99.4
2024-01-05T01:46:14.502Z,99.4
2024-01-05T01:47:28.795Z,99.5
2024-01-05T01:48:43.075Z,99.5
2024-01-05T01:49:57.381Z,99.6
2024-01-05T01:51:11.674Z,99.8
2024-01-05T01:52:25.967Z,99.9
2024-01-05T01:53:39.276Z,99.8
2024-01-05T01:54:53.569Z,99.8
2024-01-05T01:56:06.883Z,99.8
2024-01-05T01:57:21.176Z,99.8
2024-01-05T01:58:35.469Z,99.9
2024-01-05T01:59:49.762Z,99.9
2024-01-05T02:01:04.055Z,99.9
2024-01-05T02:02:18.348Z,100
2024-01-05T02:03:32.641Z,100
2024-01-05T02:04:46.934Z,100
2024-01-05T02:06:01.227Z,100
2024-01-05T02:07:15.520Z,100
2024-01-05T02:08:29.813Z,99.8
2024-01-05T02:09:44.106Z,99.9
2024-01-05T02:10:58.399Z,99.9
2024-01-05T02:12:11.708Z,99.9
2024-01-05T02:13:26.001Z,100
2024-01-05T02:14:40.294Z,100
2024-01-05T02:15:54.587Z,100
2024-01-05T02:17:08.880Z,100
2024-01-05T02:18:23.173Z,100
2024-01-05T02:19:37.466Z,99.9
2024-01-05T02:20:51.758Z,99.9
2024-01-05T02:22:06.052Z,99.8
2024-01-05T02:23:20.345Z,99.7
2024-01-05T02:24:34.638Z,99.8
2024-01-05T02:25:48.930Z,99.8
2024-01-05T02:27:03.223Z,99.8
2024-01-05T02:28:16.532Z,99.8
2024-01-05T02:29:30.825Z,99.8
2024-01-05T02:30:45.118Z,99.7
2024-01-05T02:31:59.411Z,99.7
2024-01-05T02:33:13.704Z,99.8
2024-01-05T02:34:27.997Z,99.6
2024-01-05T02:35:42.290Z,99.7
2024-01-05T02:36:56.583Z,99.7
2024-01-05T02:38:10.876Z,99.8
2024-01-05T02:39:25.169Z,99.8
2024-01-05T02:40:39.462Z,99.8
2024-01-05T02:41:53.755Z,99.8
2024-01-05T02:43:08.048Z,99.7
2024-01-05T02:44:21.357Z,99.8
2024-01-05T02:45:35.650Z,100
2024-01-05T02:46:49.943Z,100
2024-01-05T02:48:04.236Z,100
2024-01-05T02:49:18.529Z,100
2024-01-05T02:50:32.822Z,100
2024-01-05T02:51:47.114Z,100
2024-01-05T02:53:01.407Z,100
2024-01-05T02:54:15.701Z,100
2024-01-05T02:55:29.994Z,100
2024-01-05T02:56:44.287Z,100
2024-01-05T02:57:58.581Z,100
2024-01-05T02:59:12.874Z,100
2024-01-05T03:00:26.164Z,100
2024-01-05T03:01:40.477Z,100
2024-01-05T03:02:54.770Z,100
2024-01-05T03:04:09.062Z,100
2024-01-05T03:05:23.356Z,100
2024-01-05T03:06:37.649Z,100
2024-01-05T03:07:51.942Z,100
2024-01-05T03:09:06.235Z,100
2024-01-05T03:10:20.527Z,100
2024-01-05T03:11:34.820Z,100
2024-01-05T03:12:49.113Z,100
2024-01-05T03:14:03.406Z,100
2024-01-05T03:15:17.699Z,100
2024-01-05T03:16:31.009Z,100
2024-01-05T03:17:45.301Z,100
2024-01-05T03:18:59.594Z,100
2024-01-05T03:20:13.887Z,100
2024-01-05T03:21:28.180Z,100
2024-01-05T03:22:42.473Z,100
2024-01-05T03:23:56.766Z,100
2024-01-05T03:25:11.059Z,100
2024-01-05T03:26:25.352Z,100
2024-01-05T03:27:39.645Z,100
2024-01-05T03:28:53.938Z,100
2024-01-05T03:30:08.231Z,100
2024-01-05T03:31:22.524Z,100
2024-01-05T03:32:35.833Z,100
2024-01-05T03:33:50.126Z,100
2024-01-05T03:35:04.419Z,100
2024-01-05T03:36:18.712Z,100
2024-01-05T03:37:33.005Z,100
2024-01-05T03:38:47.298Z,100
2024-01-05T03:40:01.591Z,100
2024-01-05T03:41:15.884Z,100
2024-01-05T03:42:30.177Z,100
2024-01-05T03:43:44.470Z,100
2024-01-05T03:44:58.763Z,100
2024-01-05T03:46:13.056Z,100
2024-01-05T03:47:27.349Z,100
2024-01-05T03:48:40.658Z,100
2024-01-05T03:49:54.952Z,100
2024-01-05T03:51:09.245Z,100
2024-01-05T03:52:23.538Z,100
2024-01-05T03:53:37.831Z,99.8
2024-01-05T03:54:52.123Z,99.8
2024-01-05T03:56:06.416Z,100
2024-01-05T03:57:20.709Z,100
2024-01-05T03:58:35.002Z,100
2024-01-05T03:59:49.295Z,100
2024-01-05T04:01:03.588Z,100
2024-01-05T04:02:17.881Z,100
2024-01-05T04:03:32.174Z,100
2024-01-05T04:04:45.483Z,100
2024-01-05T04:05:59.776Z,100
2024-01-05T04:07:14.069Z,100
2024-01-05T04:08:28.363Z,100
2024-01-05T04:09:42.656Z,100
2024-01-05T04:10:56.949Z,100
2024-01-05T04:12:11.242Z,100
2024-01-05T04:13:25.535Z,100
2024-01-05T04:14:39.828Z,100
2024-01-05T04:15:54.121Z,100
2024-01-05T04:17:08.414Z,100
2024-01-05T04:18:22.707Z,100
2024-01-05T04:19:37.000Z,100
2024-01-05T04:20:50.309Z,100
2024-01-05T04:22:04.602Z,100
2024-01-05T04:23:18.895Z,100
2024-01-05T04:24:33.188Z,100
2024-01-05T04:25:47.481Z,100
2024-01-05T04:27:01.774Z,100
2024-01-05T04:28:16.067Z,100
2024-01-05T04:29:30.360Z,100
2024-01-05T04:30:44.653Z,100
2024-01-05T04:31:58.946Z,100
2024-01-05T04:33:13.239Z,100
2024-01-05T04:34:27.532Z,100
2024-01-05T04:35:41.825Z,100
2024-01-05T04:36:55.134Z,100
2024-01-05T04:38:09.427Z,100
2024-01-05T04:39:23.720Z,100
2024-01-05T04:40:38.013Z,100
2024-01-05T04:41:52.306Z,100
2024-01-05T04:43:06.599Z,100
2024-01-05T04:44:20.892Z,100
2024-01-05T04:45:35.185Z,100
2024-01-05T04:46:49.478Z,100
2024-01-05T04:48:03.771Z,100
2024-01-05T04:49:18.064Z,100
2024-01-05T04:50:32.357Z,100
2024-01-05T04:51:46.650Z,100
2024-01-05T04:52:59.959Z,100
2024-01-05T04:54:14.252Z,100
2024-01-05T04:55:28.545Z,100
2024-01-05T04:56:42.838Z,100
2024-01-05T04:57:57.131Z,100
2024-01-05T04:59:11.424Z,100
2024-01-05T05:00:25.717Z,100
2024-01-05T05:01:40.010Z,100
2024-01-05T05:02:54.303Z,100
2024-01-05T05:04:08.596Z,100
2024-01-05T05:05:22.889Z,100
2024-01-05T05:06:37.182Z,100
2024-01-05T05:07:51.475Z,100
2024-01-05T05:10:19.077Z,100
2024-01-05T05:11:33.370Z,100
2024-01-05T05:12:47.662Z,100
2024-01-05T05:14:01.956Z,100
2024-01-05T05:15:16.249Z,100
2024-01-05T05:16:30.541Z,100
2024-01-05T05:17:44.834Z,100
2024-01-05T05:18:59.127Z,100
2024-01-05T05:20:13.420Z,100
2024-01-05T05:21:27.713Z,100
2024-01-05T05:22:42.006Z,100
2024-01-05T05:23:56.281Z,100
2024-01-05T05:25:10.592Z,100
2024-01-05T05:26:23.901Z,100
2024-01-05T05:27:38.194Z,100
2024-01-05T05:28:52.487Z,100
2024-01-05T05:30:06.780Z,100
2024-01-05T05:31:21.070Z,100
2024-01-05T05:32:35.365Z,100
2024-01-05T05:33:49.658Z,100
2024-01-05T05:35:03.951Z,100
2024-01-05T05:36:18.244Z,100
2024-01-05T05:37:32.537Z,100
2024-01-05T05:40:01.123Z,100
2024-01-05T05:41:15.416Z,100
2024-01-05T05:42:28.725Z,100
2024-01-05T05:43:43.018Z,100
2024-01-05T05:44:57.311Z,100
2024-01-05T05:47:25.897Z,100
2024-01-05T05:48:40.190Z,100
2024-01-05T05:49:54.482Z,100
2024-01-05T05:51:08.775Z,100
2024-01-05T05:52:23.068Z,100
2024-01-05T05:54:51.655Z,100
2024-01-05T05:56:04.969Z,100
2024-01-05T05:57:18.278Z,100
2024-01-05T05:58:32.571Z,100
2024-01-05T05:59:46.864Z,100
2024-01-05T06:01:01.157Z,100
2024-01-05T06:02:15.450Z,100
2024-01-05T06:03:29.743Z,100
2024-01-05T06:04:43.057Z,100
2024-01-05T06:05:57.350Z,100
2024-01-05T06:07:11.642Z,100
2024-01-05T06:08:24.957Z,100
2024-01-05T06:09:38.266Z,100
2024-01-05T06:10:52.559Z,100
2024-01-05T06:12:06.852Z,100
2024-01-05T06:14:35.437Z,100
2024-01-05T06:15:49.730Z,100
2024-01-05T06:17:04.023Z,100
2024-01-05T06:18:18.316Z,100
2024-01-05T06:19:32.609Z,100
2024-01-05T06:20:46.902Z,100
2024-01-05T06:22:01.195Z,100
2024-01-05T06:23:15.488Z,100
2024-01-05T06:24:29.781Z,100
2024-01-05T06:25:43.089Z,100
2024-01-05T06:26:57.382Z,100
2024-01-05T06:28:11.675Z,100
2024-01-05T06:29:25.968Z,100
2024-01-05T06:30:40.261Z,100
2024-01-05T06:31:54.554Z,100
2024-01-05T06:33:08.847Z,100
2024-01-05T06:34:23.140Z,100
2024-01-05T06:35:37.433Z,100
2024-01-05T06:36:51.726Z,100
2024-01-05T06:38:06.019Z,100
2024-01-05T06:39:20.312Z,100
2024-01-05T06:40:34.605Z,100
2024-01-05T06:41:47.860Z,100
2024-01-05T06:43:02.153Z,100
2024-01-05T06:44:16.403Z,100
2024-01-05T06:45:30.642Z,100
2024-01-05T06:46:44.935Z,100
2024-01-05T06:47:59.185Z,100
2024-01-05T06:49:13.424Z,100
2024-01-05T06:50:27.674Z,100
2024-01-05T06:51:41.967Z,100
2024-01-05T06:52:56.218Z,100
2024-01-05T06:54:10.457Z,100
2024-01-05T06:55:24.696Z,100
2024-01-05T06:56:38.935Z,100
2024-01-05T06:57:52.190Z,100
2024-01-05T06:59:06.429Z,100
2024-01-05T07:00:20.668Z,100
2024-01-05T07:01:34.906Z,100
2024-01-05T07:02:49.145Z,100
2024-01-05T07:04:03.384Z,100
2024-01-05T07:05:17.623Z,100
2024-01-05T07:06:31.862Z,100
2024-01-05T07:07:46.101Z,100
2024-01-05T07:09:00.340Z,100
2024-01-05T07:10:14.579Z,100
2024-01-05T07:11:28.818Z,100
2024-01-05T07:12:43.056Z,100
2024-01-05T07:13:56.311Z,100
2024-01-05T07:15:10.550Z,100
2024-01-05T07:16:24.789Z,100
2024-01-05T07:17:39.028Z,100
2024-01-05T07:18:53.267Z,100
2024-01-05T07:20:07.506Z,100
2024-01-05T07:21:21.745Z,100
2024-01-05T07:22:35.984Z,100
2024-01-05T07:23:50.222Z,100
2024-01-05T07:25:04.461Z,100
2024-01-05T07:26:18.700Z,100
2024-01-05T07:27:32.939Z,100
2024-01-05T07:28:47.178Z,100
2024-01-05T07:30:00.433Z,100
2024-01-05T07:31:14.673Z,100
2024-01-05T07:32:28.912Z,100
2024-01-05T07:33:43.150Z,100
2024-01-05T07:34:57.389Z,100
2024-01-05T07:36:11.628Z,100
2024-01-05T07:37:25.867Z,100
2024-01-05T07:38:40.106Z,99.8
2024-01-05T07:39:54.345Z,99.7
2024-01-05T07:41:08.583Z,99.8
2024-01-05T07:42:22.822Z,99.8
2024-01-05T07:43:37.061Z,99.7
2024-01-05T07:44:51.301Z,99.6
2024-01-05T07:46:04.556Z,99.6
2024-01-05T07:47:18.795Z,99.4
2024-01-05T07:48:33.034Z,99.2
2024-01-05T07:49:47.273Z,99.2
2024-01-05T07:51:01.512Z,99
2024-01-05T07:52:15.750Z,98.8
2024-01-05T07:53:29.989Z,98.8
2024-01-05T07:54:44.228Z,98.8
2024-01-05T07:55:58.467Z,99
2024-01-05T07:57:12.705Z,99
2024-01-05T07:58:26.945Z,98.8
2024-01-05T07:59:41.183Z,98.8
2024-01-05T08:00:55.422Z,98.7
2024-01-05T08:02:08.677Z,98.9
2024-01-05T08:03:22.916Z,98.7
2024-01-05T08:04:37.155Z,98.6
2024-01-05T08:05:51.393Z,98.4
2024-01-05T08:07:05.632Z,98.4
2024-01-05T08:08:19.871Z,98.4
2024-01-05T08:09:34.110Z,98.4
2024-01-05T08:10:48.349Z,98.2
2024-01-05T08:12:02.587Z,98.1
2024-01-05T08:13:16.826Z,98.4
2024-01-05T08:14:31.065Z,98.5
2024-01-05T08:15:45.304Z,98.6
2024-01-05T08:16:59.543Z,98.5
2024-01-05T08:18:12.797Z,98.5
2024-01-05T08:19:27.036Z,98.8
2024-01-05T08:20:41.275Z,99
2024-01-05T08:21:55.514Z,99.1
2024-01-05T08:23:09.753Z,98.6
2024-01-05T08:24:23.992Z,98.5
2024-01-05T08:25:38.230Z,98.3
2024-01-05T08:26:52.469Z,98
2024-01-05T08:28:06.708Z,97.7
2024-01-05T08:29:20.946Z,97.6
2024-01-05T08:30:35.186Z,97.6
2024-01-05T08:31:49.424Z,97.2
2024-01-05T08:33:03.663Z,96.9
2024-01-05T08:34:16.918Z,96.3
2024-01-05T08:35:31.157Z,96.2
2024-01-05T08:36:45.395Z,96.5
2024-01-05T08:37:59.634Z,96.3
2024-01-05T08:39:13.873Z,96
2024-01-05T08:40:28.111Z,95.7
2024-01-05T08:41:42.350Z,95.2
2024-01-05T08:42:56.589Z,95.2
2024-01-05T08:44:10.828Z,94.6
2024-01-05T08:45:25.066Z,94.3
2024-01-05T08:46:39.305Z,94.2
2024-01-05T08:47:53.544Z,94.5
2024-01-05T08:49:07.782Z,94.2
2024-01-05T08:50:21.037Z,94
2024-01-05T08:51:35.276Z,93.6
2024-01-05T08:52:49.515Z,92.5
2024-01-05T08:54:03.753Z,92.4
2024-01-05T08:55:17.992Z,91.8
2024-01-05T08:56:32.231Z,92.1
2024-01-05T08:57:46.469Z,92.3
2024-01-05T08:59:00.708Z,92.5
2024-01-05T09:00:14.948Z,92
2024-01-05T09:01:29.186Z,91.9
2024-01-05T09:02:43.425Z,92.1
2024-01-05T09:03:57.664Z,92.1
2024-01-05T09:05:11.902Z,92.1
2024-01-05T09:06:25.157Z,92.1
2024-01-05T09:07:39.396Z,92.2
2024-01-05T09:08:53.634Z,92
2024-01-05T09:10:07.873Z,92
2024-01-05T09:11:22.112Z,91.7
2024-01-05T09:12:36.350Z,91.3
2024-01-05T09:13:50.590Z,91.1
2024-01-05T09:15:04.829Z,91.4
2024-01-05T09:16:19.067Z,90.6
2024-01-05T09:17:33.306Z,90.9
2024-01-05T09:18:47.545Z,91
2024-01-05T09:20:01.783Z,91.1
2024-01-05T09:21:16.022Z,90.8
2024-01-05T09:22:29.277Z,90
2024-01-05T09:23:43.515Z,90.1
2024-01-05T09:24:57.754Z,90.8
2024-01-05T09:26:11.993Z,90.8
2024-01-05T09:27:26.231Z,90.4
2024-01-05T09:28:40.470Z,90.4
2024-01-05T09:29:54.708Z,89.4
2024-01-05T09:31:08.947Z,89.5
2024-01-05T09:32:23.186Z,89.8
2024-01-05T09:33:37.424Z,90.1
2024-01-05T09:34:51.663Z,89.5
2024-01-05T09:36:05.902Z,88.9
2024-01-05T09:37:20.140Z,89.4
2024-01-05T09:38:33.395Z,89.5
2024-01-05T09:39:47.633Z,89.4
2024-01-05T09:41:01.872Z,89
2024-01-05T09:42:16.111Z,88
2024-01-05T09:43:30.349Z,88.3
2024-01-05T09:44:44.588Z,87.5
2024-01-05T09:45:58.827Z,87.9
2024-01-05T09:47:13.065Z,87.6
2024-01-05T09:48:27.304Z,87.7
2024-01-05T09:49:41.542Z,87.3
2024-01-05T09:50:55.781Z,86.8
2024-01-05T09:52:10.019Z,86.6
2024-01-05T09:53:24.258Z,87.1
2024-01-05T09:54:37.513Z,87.3
2024-01-05T09:55:51.751Z,86.8
2024-01-05T09:57:05.990Z,86.7
2024-01-05T09:58:20.229Z,85.3
2024-01-05T09:59:34.467Z,86.3
2024-01-05T10:00:48.706Z,85.7
2024-01-05T10:02:02.945Z,86.8
2024-01-05T10:03:17.183Z,86.3
2024-01-05T10:04:31.422Z,85.2
2024-01-05T10:05:45.660Z,86
2024-01-05T10:06:59.899Z,86.7
2024-01-05T10:08:14.138Z,86.1
2024-01-05T10:09:28.376Z,86.3
2024-01-05T10:10:41.631Z,87.3
2024-01-05T10:11:55.870Z,87
2024-01-05T10:13:09.129Z,86.8
2024-01-05T10:14:23.368Z,86.8
2024-01-05T10:15:37.607Z,87
2024-01-05T10:16:51.845Z,87.2
2024-01-05T10:18:06.084Z,86.2
2024-01-05T10:19:20.323Z,86.2
2024-01-05T10:20:34.561Z,86.1
2024-01-05T10:21:48.800Z,85.9
2024-01-05T10:23:03.039Z,86.7
2024-01-05T10:24:17.278Z,86
2024-01-05T10:25:31.517Z,86
2024-01-05T10:26:45.755Z,86.1
2024-01-05T10:27:59.994Z,85
2024-01-05T10:29:13.249Z,85.8
2024-01-05T10:30:27.488Z,85.8
2024-01-05T10:31:41.726Z,86.2
2024-01-05T10:32:55.965Z,85.9
2024-01-05T10:34:10.203Z,84.4
2024-01-05T10:35:24.442Z,85.4
2024-01-05T10:36:38.680Z,84.8
2024-01-05T10:37:52.919Z,83.7
2024-01-05T10:39:07.157Z,83
2024-01-05T10:40:21.396Z,83.5
2024-01-05T10:41:35.635Z,82.2
2024-01-05T10:42:49.873Z,82.4
2024-01-05T10:44:04.112Z,82.8
2024-01-05T10:45:17.367Z,82.8
2024-01-05T10:46:31.605Z,83.2
2024-01-05T10:47:44.865Z,82.7
2024-01-05T10:48:58.120Z,83
2024-01-05T10:50:12.358Z,82.7
2024-01-05T10:51:26.597Z,81.6
2024-01-05T10:52:40.836Z,82.8
2024-01-05T10:53:55.074Z,82.8
2024-01-05T10:55:09.313Z,82.9
2024-01-05T10:56:23.552Z,83.1
2024-01-05T10:57:37.790Z,83
2024-01-05T10:58:52.029Z,83.8
2024-01-05T11:00:06.268Z,83
2024-01-05T11:01:20.507Z,82.9
2024-01-05T11:02:34.745Z,82.7
2024-01-05T11:03:48.984Z,82.9
2024-01-05T11:05:02.239Z,83
2024-01-05T11:06:16.477Z,82.9
2024-01-05T11:07:30.716Z,83.2
2024-01-05T11:08:44.955Z,83
2024-01-05T11:09:59.193Z,82.7
2024-01-05T11:11:13.432Z,82.8
2024-01-05T11:13:41.904Z,83.2
2024-01-05T11:14:56.148Z,82.4
2024-01-05T11:16:10.386Z,82.3
2024-01-05T11:17:24.625Z,82.4
2024-01-05T11:18:38.863Z,82.8
2024-01-05T11:19:53.102Z,82.2
2024-01-05T11:21:06.357Z,82.3
2024-01-05T11:22:20.595Z,82.3
2024-01-05T11:23:34.834Z,81.9
2024-01-05T11:24:49.072Z,81.4
2024-01-05T11:26:03.311Z,82.2
2024-01-05T11:27:17.537Z,82.1
2024-01-05T11:28:31.788Z,81.1
2024-01-05T11:29:46.027Z,81.7
2024-01-05T11:31:00.265Z,81.2
2024-01-05T11:32:14.504Z,80.7
2024-01-05T11:33:28.742Z,81.3
2024-01-05T11:34:42.966Z,81.3
2024-01-05T11:35:57.220Z,80.7
2024-01-05T11:37:10.474Z,80.9
2024-01-05T11:38:24.713Z,81.1
2024-01-05T11:39:38.951Z,79.6
2024-01-05T11:40:53.190Z,79.4
2024-01-05T11:42:07.414Z,80.6
2024-01-05T11:43:21.667Z,79.4
2024-01-05T11:44:35.905Z,80.1
2024-01-05T11:45:50.144Z,80
2024-01-05T11:47:04.383Z,79.6
2024-01-05T11:48:18.621Z,79.3
2024-01-05T11:49:32.844Z,80.4
2024-01-05T11:50:47.098Z,80
2024-01-05T11:52:01.337Z,80.3
2024-01-05T11:53:14.592Z,80.4
2024-01-05T11:54:28.830Z,80.3
2024-01-05T11:55:43.069Z,80.7
2024-01-05T11:56:57.307Z,80.2
2024-01-05T11:58:11.546Z,80.5
2024-01-05T11:59:25.784Z,80.5
2024-01-05T12:00:40.023Z,80.2
2024-01-05T12:01:54.262Z,80.6
2024-01-05T12:03:08.500Z,80.8
2024-01-05T12:04:22.733Z,80.5
2024-01-05T12:05:36.977Z,80.7
2024-01-05T12:06:51.216Z,80.8
2024-01-05T12:08:05.455Z,80.9
2024-01-05T12:09:18.709Z,80
2024-01-05T12:10:32.949Z,80.3
2024-01-05T12:13:01.426Z,80.8
2024-01-05T12:14:15.665Z,80.8
2024-01-05T12:15:29.903Z,80.9
2024-01-05T12:16:44.142Z,81.1
2024-01-05T12:17:58.380Z,81.5
2024-01-05T12:19:12.619Z,80.9
2024-01-05T12:20:26.858Z,81.1
2024-01-05T12:21:41.096Z,81.2
2024-01-05T12:22:55.335Z,80.9
2024-01-05T12:24:09.573Z,80.5
2024-01-05T12:25:22.828Z,80.6
2024-01-05T12:26:37.067Z,80.9
2024-01-05T12:27:51.305Z,80.8
2024-01-05T12:29:05.544Z,81
2024-01-05T12:30:19.783Z,81.1
2024-01-05T12:31:34.021Z,80.9
2024-01-05T12:32:48.260Z,81.2
2024-01-05T12:34:02.487Z,81.1
2024-01-05T12:35:16.737Z,80.7
2024-01-05T12:36:30.975Z,80.8
2024-01-05T12:37:45.214Z,80.9
2024-01-05T12:38:59.452Z,81.4
2024-01-05T12:40:13.688Z,82
2024-01-05T12:41:27.930Z,81.4
2024-01-05T12:42:41.184Z,81.3
2024-01-05T12:43:55.423Z,81.1
2024-01-05T12:45:09.661Z,81.4
2024-01-05T12:46:23.900Z,82.5
2024-01-05T12:47:38.139Z,82.5
2024-01-05T12:48:52.377Z,82.7
2024-01-05T12:50:06.616Z,82.2
2024-01-05T12:51:20.855Z,82.5
2024-01-05T12:52:35.093Z,82.5
2024-01-05T12:53:49.332Z,82.5
2024-01-05T12:55:03.570Z,82.4
2024-01-05T12:56:17.809Z,82.4
2024-01-05T12:57:32.047Z,81.9
2024-01-05T12:58:45.302Z,82.1
2024-01-05T12:59:59.541Z,82.9
2024-01-05T13:01:13.779Z,83.5
2024-01-05T13:02:28.018Z,82.3
2024-01-05T13:03:42.256Z,82.7
2024-01-05T13:04:56.495Z,82.5
2024-01-05T13:06:10.734Z,82.4
2024-01-05T13:07:24.972Z,82.8
2024-01-05T13:08:39.211Z,82.5
2024-01-05T13:09:53.449Z,82.7
2024-01-05T13:11:07.688Z,82.5
2024-01-05T13:12:21.927Z,82.4
2024-01-05T13:13:36.165Z,82.7
2024-01-05T13:14:49.420Z,82.7
2024-01-05T13:16:03.659Z,82.7
2024-01-05T13:17:17.897Z,82.1
2024-01-05T13:18:32.136Z,82.8
2024-01-05T13:19:46.374Z,82.5
2024-01-05T13:21:00.613Z,82.9
2024-01-05T13:22:14.851Z,83
2024-01-05T13:23:29.090Z,83.2
2024-01-05T13:24:43.328Z,82.4
2024-01-05T13:25:57.567Z,82.5
2024-01-05T13:27:11.805Z,82.3
2024-01-05T13:28:26.044Z,82.4
2024-01-05T13:29:40.283Z,82.2
2024-01-05T13:30:53.537Z,83
2024-01-05T13:32:07.776Z,82.5
2024-01-05T13:33:22.014Z,81.9
2024-01-05T13:34:36.253Z,81.9
2024-01-05T13:35:50.492Z,81.4
2024-01-05T13:37:04.730Z,82.3
2024-01-05T13:38:18.969Z,81.8
2024-01-05T13:39:33.207Z,81.6
2024-01-05T13:40:47.446Z,81.4
2024-01-05T13:42:01.684Z,81.8
2024-01-05T13:43:15.923Z,81.6
2024-01-05T13:44:30.162Z,81.3
2024-01-05T13:45:44.400Z,81.4
2024-01-05T13:46:57.655Z,81.6
2024-01-05T13:48:11.893Z,81.6
2024-01-05T13:49:26.132Z,81.5
2024-01-05T13:50:40.371Z,80.9
2024-01-05T13:51:54.610Z,80.3
2024-01-05T13:53:08.848Z,80.7
2024-01-05T13:54:23.087Z,80.7
2024-01-05T13:55:37.326Z,81.1
2024-01-05T13:56:51.564Z,81.9
2024-01-05T13:58:05.803Z,81.2
2024-01-05T13:59:20.041Z,81.8
2024-01-05T14:00:34.280Z,81.6
2024-01-05T14:01:48.518Z,81
2024-01-05T14:04:16.012Z,81.5
2024-01-05T14:05:30.250Z,82.3
2024-01-05T14:06:44.489Z,81.7
2024-01-05T14:07:58.728Z,81.8
2024-01-05T14:09:12.966Z,82.1
2024-01-05T14:10:27.205Z,81.8
2024-01-05T14:11:41.443Z,82
2024-01-05T14:12:55.682Z,82.1
2024-01-05T14:14:09.920Z,82
2024-01-05T14:15:24.159Z,82.6
2024-01-05T14:16:38.398Z,81.9
2024-01-05T14:17:52.636Z,82
2024-01-05T14:19:05.891Z,82.6
2024-01-05T14:20:20.130Z,82.5
2024-01-05T14:21:33.389Z,82.3
2024-01-05T14:22:47.628Z,82.2
2024-01-05T14:24:01.867Z,83.3
2024-01-05T14:25:16.105Z,82.4
2024-01-05T14:26:30.344Z,81.9
2024-01-05T14:27:44.582Z,81.9
2024-01-05T14:28:58.821Z,82.2
2024-01-05T14:30:13.060Z,81.8
2024-01-05T14:31:27.298Z,82
2024-01-05T14:32:41.537Z,82.2
2024-01-05T14:33:55.775Z,82.5
2024-01-05T14:35:10.014Z,82.1
2024-01-05T14:36:24.252Z,82.4
2024-01-05T14:37:37.507Z,82.4
2024-01-05T14:38:51.746Z,82.5
2024-01-05T14:40:05.985Z,82.9
2024-01-05T14:41:20.223Z,83
2024-01-05T14:42:34.462Z,83.3
2024-01-05T14:43:48.700Z,83.4
2024-01-05T14:45:02.939Z,83.8
2024-01-05T14:46:17.177Z,84.2
2024-01-05T14:47:31.416Z,84.5
2024-01-05T14:48:45.654Z,84.8
2024-01-05T14:49:59.893Z,84.2
2024-01-05T14:51:14.132Z,84.4
2024-01-05T14:52:28.370Z,84.6
2024-01-05T14:53:41.625Z,84.8
2024-01-05T14:54:55.864Z,84.8
2024-01-05T14:56:10.102Z,84.9
2024-01-05T14:57:24.341Z,85.1
2024-01-05T14:58:38.580Z,85
2024-01-05T14:59:52.818Z,85
2024-01-05T15:01:07.058Z,85.1
2024-01-05T15:02:21.297Z,85.5
2024-01-05T15:03:35.535Z,85.8
2024-01-05T15:04:49.774Z,85.5
2024-01-05T15:06:04.012Z,86
2024-01-05T15:07:18.251Z,85.4
2024-01-05T15:08:32.489Z,85.2
2024-01-05T15:09:45.744Z,85.7
2024-01-05T15:10:59.983Z,85.4
2024-01-05T15:12:14.222Z,85.4
2024-01-05T15:13:28.460Z,85.5
2024-01-05T15:14:42.699Z,86
2024-01-05T15:15:56.938Z,85.8
2024-01-05T15:17:11.176Z,86
2024-01-05T15:18:25.415Z,85
2024-01-05T15:19:39.653Z,85.1
2024-01-05T15:20:53.892Z,85.5
2024-01-05T15:22:08.131Z,85.4
2024-01-05T15:23:22.370Z,85.5
2024-01-05T15:24:36.608Z,85.8
2024-01-05T15:25:50.847Z,85.4
2024-01-05T15:27:04.101Z,85.5
2024-01-05T15:28:18.340Z,85.6
2024-01-05T15:29:32.579Z,85.8
2024-01-05T15:30:46.817Z,86.5
2024-01-05T15:32:01.056Z,85.9
2024-01-05T15:33:15.295Z,86
2024-01-05T15:34:29.533Z,85.3
2024-01-05T15:35:43.772Z,85.6
2024-01-05T15:36:58.011Z,85.5
2024-01-05T15:38:12.249Z,85.4
2024-01-05T15:39:26.488Z,85.1
2024-01-05T15:40:40.726Z,85.5
2024-01-05T15:41:54.965Z,85.3
2024-01-05T15:43:08.220Z,85.8
2024-01-05T15:44:22.513Z,85.6
2024-01-05T15:45:36.806Z,85.7
2024-01-05T15:46:51.045Z,85.7
2024-01-05T15:48:05.283Z,85.8
2024-01-05T15:49:19.523Z,85.6
2024-01-05T15:50:33.762Z,86
2024-01-05T15:51:48.054Z,85.9
2024-01-05T15:53:02.347Z,85.8
2024-01-05T15:54:16.640Z,85.9
2024-01-05T15:55:30.933Z,85.8
2024-01-05T15:56:45.226Z,85.8
2024-01-05T15:57:59.518Z,85.8
2024-01-05T15:59:12.827Z,85.6
2024-01-05T16:00:27.120Z,85.7
2024-01-05T16:01:41.412Z,85.4
2024-01-05T16:02:55.705Z,85.8
2024-01-05T16:04:09.998Z,85.8
2024-01-05T16:05:24.290Z,85.8
2024-01-05T16:06:38.583Z,86.5
2024-01-05T16:07:52.876Z,85.9
2024-01-05T16:09:07.168Z,85.9
2024-01-05T16:10:21.461Z,85.9
2024-01-05T16:11:35.753Z,85.8
2024-01-05T16:12:50.046Z,85.6
2024-01-05T16:14:04.339Z,86.1
2024-01-05T16:15:17.647Z,85.9
2024-01-05T16:16:31.940Z,85.6
2024-01-05T16:17:46.233Z,86
2024-01-05T16:19:00.525Z,86.2
2024-01-05T16:20:14.818Z,85.8
2024-01-05T16:21:29.111Z,86.1
2024-01-05T16:22:43.403Z,86.2
2024-01-05T16:23:57.696Z,86.2
2024-01-05T16:25:11.988Z,86.3
2024-01-05T16:26:26.281Z,86.5
2024-01-05T16:27:40.574Z,86.2
2024-01-05T16:28:54.867Z,86.3
2024-01-05T16:30:09.159Z,86.5
2024-01-05T16:31:22.468Z,86.1
2024-01-05T16:32:36.761Z,86.1
2024-01-05T16:33:51.053Z,86.5
2024-01-05T16:35:05.346Z,86.7
2024-01-05T16:36:19.638Z,86.3
2024-01-05T16:37:33.931Z,86.5
2024-01-05T16:38:48.224Z,86.3
2024-01-05T16:40:02.516Z,86.8
2024-01-05T16:41:16.809Z,86.7
2024-01-05T16:42:31.102Z,86.7
2024-01-05T16:43:45.394Z,86.4
2024-01-05T16:44:59.687Z,86.8
2024-01-05T16:46:13.979Z,86.5
2024-01-05T16:47:27.288Z,86.5
2024-01-05T16:48:41.581Z,86.8
2024-01-05T16:49:55.874Z,86.7
2024-01-05T16:51:10.166Z,86.7
2024-01-05T16:52:24.459Z,86.7
2024-01-05T16:53:38.751Z,86.7